<?xml version="1.0" encoding="UTF-8" standalone="no" ?><gpx xmlns="http://www.topografix.com/GPX/1/1" xmlns:gpxx="http://www.garmin.com/xmlschemas/GpxExtensions/v3" xmlns:gpxtpx="http://www.garmin.com/xmlschemas/TrackPointExtension/v1" creator="Foretrex 301" version="1.1" xmlns:xsi="http://www.w3.org/2001/XMLSchema-instance" xsi:schemaLocation="http://www.topografix.com/GPX/1/1 http://www.topografix.com/GPX/1/1/gpx.xsd http://www.garmin.com/xmlschemas/GpxExtensions/v3 http://www.garmin.com/xmlschemas/GpxExtensions/v3/GpxExtensionsv3.xsd"><metadata><link href="http://www.garmin.com"><text>Garmin International</text></link><time>2010-11-03T16:42:03Z</time></metadata><trk><name>ACTIVE LOG: 03 NOV 2010 09:55</name><trkseg><trkpt lat="51.967858" lon="-1.965455"><ele>95.79</ele><time>2010-11-03T09:55:03Z</time></trkpt><trkpt lat="51.967869" lon="-1.965446"><ele>94.83</ele><time>2010-11-03T09:55:23Z</time></trkpt><trkpt lat="51.967910" lon="-1.965100"><ele>90.02</ele><time>2010-11-03T09:55:39Z</time></trkpt><trkpt lat="51.967925" lon="-1.965037"><ele>90.50</ele><time>2010-11-03T09:55:43Z</time></trkpt><trkpt lat="51.967859" lon="-1.964826"><ele>90.02</ele><time>2010-11-03T09:55:55Z</time></trkpt><trkpt lat="51.967817" lon="-1.964298"><ele>89.06</ele><time>2010-11-03T09:56:17Z</time></trkpt><trkpt lat="51.967783" lon="-1.963964"><ele>89.54</ele><time>2010-11-03T09:56:34Z</time></trkpt><trkpt lat="51.967749" lon="-1.963704"><ele>89.06</ele><time>2010-11-03T09:56:47Z</time></trkpt><trkpt lat="51.967746" lon="-1.963627"><ele>90.50</ele><time>2010-11-03T09:56:57Z</time></trkpt><trkpt lat="51.967708" lon="-1.963362"><ele>90.98</ele><time>2010-11-03T09:57:10Z</time></trkpt><trkpt lat="51.967678" lon="-1.963017"><ele>90.98</ele><time>2010-11-03T09:57:27Z</time></trkpt><trkpt lat="51.967637" lon="-1.962689"><ele>90.98</ele><time>2010-11-03T09:57:43Z</time></trkpt><trkpt lat="51.967588" lon="-1.962410"><ele>90.50</ele><time>2010-11-03T09:57:56Z</time></trkpt><trkpt lat="51.967539" lon="-1.962201"><ele>91.46</ele><time>2010-11-03T09:58:07Z</time></trkpt><trkpt lat="51.967532" lon="-1.962181"><ele>91.46</ele><time>2010-11-03T09:58:08Z</time></trkpt><trkpt lat="51.967431" lon="-1.961898"><ele>90.98</ele><time>2010-11-03T09:58:25Z</time></trkpt><trkpt lat="51.967314" lon="-1.961667"><ele>89.54</ele><time>2010-11-03T09:58:40Z</time></trkpt><trkpt lat="51.967181" lon="-1.961334"><ele>87.62</ele><time>2010-11-03T09:58:59Z</time></trkpt><trkpt lat="51.967028" lon="-1.960963"><ele>86.66</ele><time>2010-11-03T09:59:21Z</time></trkpt><trkpt lat="51.966857" lon="-1.960544"><ele>85.21</ele><time>2010-11-03T09:59:46Z</time></trkpt><trkpt lat="51.966686" lon="-1.960143"><ele>84.25</ele><time>2010-11-03T10:00:10Z</time></trkpt><trkpt lat="51.966550" lon="-1.959801"><ele>83.77</ele><time>2010-11-03T10:00:30Z</time></trkpt><trkpt lat="51.966484" lon="-1.959723"><ele>83.29</ele><time>2010-11-03T10:00:38Z</time></trkpt><trkpt lat="51.966455" lon="-1.959444"><ele>83.29</ele><time>2010-11-03T10:00:55Z</time></trkpt><trkpt lat="51.966450" lon="-1.959247"><ele>84.73</ele><time>2010-11-03T10:01:04Z</time></trkpt><trkpt lat="51.966453" lon="-1.958929"><ele>85.69</ele><time>2010-11-03T10:01:21Z</time></trkpt><trkpt lat="51.966420" lon="-1.958634"><ele>85.21</ele><time>2010-11-03T10:01:37Z</time></trkpt><trkpt lat="51.966411" lon="-1.958527"><ele>85.21</ele><time>2010-11-03T10:01:43Z</time></trkpt><trkpt lat="51.966423" lon="-1.958347"><ele>84.25</ele><time>2010-11-03T10:01:50Z</time></trkpt><trkpt lat="51.966423" lon="-1.958040"><ele>82.81</ele><time>2010-11-03T10:02:06Z</time></trkpt><trkpt lat="51.966419" lon="-1.957716"><ele>81.37</ele><time>2010-11-03T10:02:24Z</time></trkpt><trkpt lat="51.966417" lon="-1.957511"><ele>80.89</ele><time>2010-11-03T10:02:37Z</time></trkpt><trkpt lat="51.966416" lon="-1.957483"><ele>80.89</ele><time>2010-11-03T10:02:39Z</time></trkpt><trkpt lat="51.966414" lon="-1.957176"><ele>80.41</ele><time>2010-11-03T10:02:56Z</time></trkpt><trkpt lat="51.966437" lon="-1.957071"><ele>80.41</ele><time>2010-11-03T10:03:06Z</time></trkpt><trkpt lat="51.966463" lon="-1.956978"><ele>80.89</ele><time>2010-11-03T10:03:12Z</time></trkpt><trkpt lat="51.966468" lon="-1.956538"><ele>81.37</ele><time>2010-11-03T10:03:33Z</time></trkpt><trkpt lat="51.966468" lon="-1.956327"><ele>88.58</ele><time>2010-11-03T10:03:48Z</time></trkpt><trkpt lat="51.966470" lon="-1.956301"><ele>89.54</ele><time>2010-11-03T10:03:50Z</time></trkpt><trkpt lat="51.966458" lon="-1.956238"><ele>90.50</ele><time>2010-11-03T10:04:00Z</time></trkpt><trkpt lat="51.966467" lon="-1.956176"><ele>90.98</ele><time>2010-11-03T10:04:04Z</time></trkpt><trkpt lat="51.966471" lon="-1.956062"><ele>90.02</ele><time>2010-11-03T10:04:09Z</time></trkpt><trkpt lat="51.966463" lon="-1.955857"><ele>88.58</ele><time>2010-11-03T10:04:20Z</time></trkpt><trkpt lat="51.966436" lon="-1.955696"><ele>85.69</ele><time>2010-11-03T10:04:29Z</time></trkpt><trkpt lat="51.966234" lon="-1.955577"><ele>82.33</ele><time>2010-11-03T10:04:46Z</time></trkpt><trkpt lat="51.966007" lon="-1.955554"><ele>80.41</ele><time>2010-11-03T10:05:04Z</time></trkpt><trkpt lat="51.965840" lon="-1.955552"><ele>78.97</ele><time>2010-11-03T10:05:18Z</time></trkpt><trkpt lat="51.965783" lon="-1.955557"><ele>77.52</ele><time>2010-11-03T10:05:23Z</time></trkpt><trkpt lat="51.965646" lon="-1.955566"><ele>77.52</ele><time>2010-11-03T10:05:38Z</time></trkpt><trkpt lat="51.965602" lon="-1.955495"><ele>80.41</ele><time>2010-11-03T10:05:47Z</time></trkpt><trkpt lat="51.965593" lon="-1.955445"><ele>80.41</ele><time>2010-11-03T10:05:51Z</time></trkpt><trkpt lat="51.965523" lon="-1.955382"><ele>78.48</ele><time>2010-11-03T10:06:04Z</time></trkpt><trkpt lat="51.965526" lon="-1.955383"><ele>78.48</ele><time>2010-11-03T10:06:05Z</time></trkpt><trkpt lat="51.965615" lon="-1.955166"><ele>78.97</ele><time>2010-11-03T10:06:24Z</time></trkpt><trkpt lat="51.965674" lon="-1.955014"><ele>79.93</ele><time>2010-11-03T10:06:33Z</time></trkpt><trkpt lat="51.965682" lon="-1.954862"><ele>78.00</ele><time>2010-11-03T10:06:47Z</time></trkpt><trkpt lat="51.965717" lon="-1.954604"><ele>77.52</ele><time>2010-11-03T10:07:04Z</time></trkpt><trkpt lat="51.965790" lon="-1.954296"><ele>75.12</ele><time>2010-11-03T10:07:23Z</time></trkpt><trkpt lat="51.965853" lon="-1.954002"><ele>76.08</ele><time>2010-11-03T10:07:39Z</time></trkpt><trkpt lat="51.965884" lon="-1.953763"><ele>78.97</ele><time>2010-11-03T10:07:55Z</time></trkpt><trkpt lat="51.965896" lon="-1.953350"><ele>80.89</ele><time>2010-11-03T10:08:17Z</time></trkpt><trkpt lat="51.965926" lon="-1.953011"><ele>81.85</ele><time>2010-11-03T10:08:35Z</time></trkpt><trkpt lat="51.965930" lon="-1.952659"><ele>82.81</ele><time>2010-11-03T10:08:55Z</time></trkpt><trkpt lat="51.965962" lon="-1.952427"><ele>83.29</ele><time>2010-11-03T10:09:09Z</time></trkpt><trkpt lat="51.966003" lon="-1.952110"><ele>83.77</ele><time>2010-11-03T10:09:27Z</time></trkpt><trkpt lat="51.965943" lon="-1.951858"><ele>84.25</ele><time>2010-11-03T10:09:42Z</time></trkpt><trkpt lat="51.965903" lon="-1.951522"><ele>84.73</ele><time>2010-11-03T10:10:01Z</time></trkpt><trkpt lat="51.965895" lon="-1.951244"><ele>84.73</ele><time>2010-11-03T10:10:17Z</time></trkpt><trkpt lat="51.965826" lon="-1.950902"><ele>84.73</ele><time>2010-11-03T10:10:37Z</time></trkpt><trkpt lat="51.965763" lon="-1.950604"><ele>85.69</ele><time>2010-11-03T10:10:56Z</time></trkpt><trkpt lat="51.965700" lon="-1.950320"><ele>85.69</ele><time>2010-11-03T10:11:13Z</time></trkpt><trkpt lat="51.965652" lon="-1.950035"><ele>86.66</ele><time>2010-11-03T10:11:30Z</time></trkpt><trkpt lat="51.965588" lon="-1.949757"><ele>86.66</ele><time>2010-11-03T10:11:48Z</time></trkpt><trkpt lat="51.965550" lon="-1.949543"><ele>86.66</ele><time>2010-11-03T10:12:02Z</time></trkpt><trkpt lat="51.965495" lon="-1.949259"><ele>88.10</ele><time>2010-11-03T10:12:21Z</time></trkpt><trkpt lat="51.965481" lon="-1.949222"><ele>88.58</ele><time>2010-11-03T10:12:24Z</time></trkpt><trkpt lat="51.965456" lon="-1.949026"><ele>89.06</ele><time>2010-11-03T10:12:37Z</time></trkpt><trkpt lat="51.965428" lon="-1.948792"><ele>90.50</ele><time>2010-11-03T10:12:52Z</time></trkpt><trkpt lat="51.965378" lon="-1.948619"><ele>91.94</ele><time>2010-11-03T10:13:04Z</time></trkpt><trkpt lat="51.965383" lon="-1.948486"><ele>92.42</ele><time>2010-11-03T10:13:17Z</time></trkpt><trkpt lat="51.965379" lon="-1.948390"><ele>92.90</ele><time>2010-11-03T10:13:29Z</time></trkpt><trkpt lat="51.965378" lon="-1.948377"><ele>92.90</ele><time>2010-11-03T10:13:30Z</time></trkpt><trkpt lat="51.965350" lon="-1.948285"><ele>93.39</ele><time>2010-11-03T10:13:38Z</time></trkpt><trkpt lat="51.965188" lon="-1.948232"><ele>94.83</ele><time>2010-11-03T10:13:54Z</time></trkpt><trkpt lat="51.965110" lon="-1.948207"><ele>94.83</ele><time>2010-11-03T10:14:03Z</time></trkpt><trkpt lat="51.965043" lon="-1.948126"><ele>95.31</ele><time>2010-11-03T10:14:13Z</time></trkpt><trkpt lat="51.964947" lon="-1.947911"><ele>96.75</ele><time>2010-11-03T10:14:32Z</time></trkpt><trkpt lat="51.964859" lon="-1.947758"><ele>97.71</ele><time>2010-11-03T10:14:46Z</time></trkpt><trkpt lat="51.964774" lon="-1.947659"><ele>98.19</ele><time>2010-11-03T10:14:57Z</time></trkpt><trkpt lat="51.964654" lon="-1.947562"><ele>99.63</ele><time>2010-11-03T10:15:12Z</time></trkpt><trkpt lat="51.964553" lon="-1.947482"><ele>101.56</ele><time>2010-11-03T10:15:26Z</time></trkpt><trkpt lat="51.964443" lon="-1.947399"><ele>102.52</ele><time>2010-11-03T10:15:42Z</time></trkpt><trkpt lat="51.964301" lon="-1.947327"><ele>103.00</ele><time>2010-11-03T10:16:02Z</time></trkpt><trkpt lat="51.964164" lon="-1.947238"><ele>106.36</ele><time>2010-11-03T10:16:22Z</time></trkpt><trkpt lat="51.964016" lon="-1.947207"><ele>110.21</ele><time>2010-11-03T10:16:43Z</time></trkpt><trkpt lat="51.963915" lon="-1.947119"><ele>112.61</ele><time>2010-11-03T10:16:56Z</time></trkpt><trkpt lat="51.963870" lon="-1.946884"><ele>115.01</ele><time>2010-11-03T10:17:12Z</time></trkpt><trkpt lat="51.963847" lon="-1.946683"><ele>116.46</ele><time>2010-11-03T10:17:26Z</time></trkpt><trkpt lat="51.963808" lon="-1.946517"><ele>117.42</ele><time>2010-11-03T10:17:41Z</time></trkpt><trkpt lat="51.963763" lon="-1.946355"><ele>118.86</ele><time>2010-11-03T10:17:55Z</time></trkpt><trkpt lat="51.963708" lon="-1.946191"><ele>120.30</ele><time>2010-11-03T10:18:10Z</time></trkpt><trkpt lat="51.963684" lon="-1.946164"><ele>120.30</ele><time>2010-11-03T10:18:20Z</time></trkpt><trkpt lat="51.963684" lon="-1.946167"><ele>120.30</ele><time>2010-11-03T10:18:22Z</time></trkpt><trkpt lat="51.963625" lon="-1.945943"><ele>121.74</ele><time>2010-11-03T10:18:38Z</time></trkpt><trkpt lat="51.963547" lon="-1.945732"><ele>122.22</ele><time>2010-11-03T10:18:54Z</time></trkpt><trkpt lat="51.963440" lon="-1.945639"><ele>123.19</ele><time>2010-11-03T10:19:08Z</time></trkpt><trkpt lat="51.963436" lon="-1.945641"><ele>123.19</ele><time>2010-11-03T10:19:49Z</time></trkpt><trkpt lat="51.963406" lon="-1.945624"><ele>124.15</ele><time>2010-11-03T10:20:04Z</time></trkpt><trkpt lat="51.963412" lon="-1.945634"><ele>124.15</ele><time>2010-11-03T10:20:11Z</time></trkpt><trkpt lat="51.963381" lon="-1.945497"><ele>126.55</ele><time>2010-11-03T10:20:19Z</time></trkpt><trkpt lat="51.963389" lon="-1.945546"><ele>126.55</ele><time>2010-11-03T10:20:23Z</time></trkpt><trkpt lat="51.963390" lon="-1.945625"><ele>126.55</ele><time>2010-11-03T10:20:34Z</time></trkpt><trkpt lat="51.963402" lon="-1.945629"><ele>126.55</ele><time>2010-11-03T10:21:15Z</time></trkpt><trkpt lat="51.963372" lon="-1.945574"><ele>126.55</ele><time>2010-11-03T10:21:30Z</time></trkpt><trkpt lat="51.963403" lon="-1.945623"><ele>124.15</ele><time>2010-11-03T10:21:43Z</time></trkpt><trkpt lat="51.963390" lon="-1.945600"><ele>125.59</ele><time>2010-11-03T10:22:00Z</time></trkpt><trkpt lat="51.963348" lon="-1.945543"><ele>127.03</ele><time>2010-11-03T10:22:16Z</time></trkpt><trkpt lat="51.963350" lon="-1.945541"><ele>127.03</ele><time>2010-11-03T10:22:17Z</time></trkpt><trkpt lat="51.963401" lon="-1.945245"><ele>127.51</ele><time>2010-11-03T10:22:33Z</time></trkpt><trkpt lat="51.963454" lon="-1.944928"><ele>127.03</ele><time>2010-11-03T10:22:50Z</time></trkpt><trkpt lat="51.963490" lon="-1.944830"><ele>126.07</ele><time>2010-11-03T10:23:04Z</time></trkpt><trkpt lat="51.963517" lon="-1.944745"><ele>126.07</ele><time>2010-11-03T10:23:17Z</time></trkpt><trkpt lat="51.963666" lon="-1.944568"><ele>124.15</ele><time>2010-11-03T10:23:32Z</time></trkpt><trkpt lat="51.963790" lon="-1.944360"><ele>123.19</ele><time>2010-11-03T10:23:48Z</time></trkpt><trkpt lat="51.963941" lon="-1.944153"><ele>124.15</ele><time>2010-11-03T10:24:08Z</time></trkpt><trkpt lat="51.964062" lon="-1.943953"><ele>124.63</ele><time>2010-11-03T10:24:24Z</time></trkpt><trkpt lat="51.964152" lon="-1.943762"><ele>124.15</ele><time>2010-11-03T10:24:40Z</time></trkpt><trkpt lat="51.964244" lon="-1.943592"><ele>123.19</ele><time>2010-11-03T10:24:55Z</time></trkpt><trkpt lat="51.964349" lon="-1.943410"><ele>123.19</ele><time>2010-11-03T10:25:11Z</time></trkpt><trkpt lat="51.964440" lon="-1.943237"><ele>122.22</ele><time>2010-11-03T10:25:26Z</time></trkpt><trkpt lat="51.964529" lon="-1.943070"><ele>121.74</ele><time>2010-11-03T10:25:41Z</time></trkpt><trkpt lat="51.964659" lon="-1.942874"><ele>122.22</ele><time>2010-11-03T10:25:58Z</time></trkpt><trkpt lat="51.964747" lon="-1.942668"><ele>120.30</ele><time>2010-11-03T10:26:15Z</time></trkpt><trkpt lat="51.964840" lon="-1.942454"><ele>118.86</ele><time>2010-11-03T10:26:32Z</time></trkpt><trkpt lat="51.964932" lon="-1.942245"><ele>118.38</ele><time>2010-11-03T10:26:48Z</time></trkpt><trkpt lat="51.965041" lon="-1.942010"><ele>117.42</ele><time>2010-11-03T10:27:06Z</time></trkpt><trkpt lat="51.965053" lon="-1.941988"><ele>117.42</ele><time>2010-11-03T10:27:08Z</time></trkpt><trkpt lat="51.965061" lon="-1.941948"><ele>116.94</ele><time>2010-11-03T10:27:11Z</time></trkpt><trkpt lat="51.965140" lon="-1.941720"><ele>115.50</ele><time>2010-11-03T10:27:27Z</time></trkpt><trkpt lat="51.965226" lon="-1.941469"><ele>115.50</ele><time>2010-11-03T10:27:45Z</time></trkpt><trkpt lat="51.965270" lon="-1.941334"><ele>114.53</ele><time>2010-11-03T10:27:54Z</time></trkpt><trkpt lat="51.965351" lon="-1.941046"><ele>112.61</ele><time>2010-11-03T10:28:12Z</time></trkpt><trkpt lat="51.965427" lon="-1.940813"><ele>113.57</ele><time>2010-11-03T10:28:29Z</time></trkpt><trkpt lat="51.965474" lon="-1.940562"><ele>114.05</ele><time>2010-11-03T10:28:46Z</time></trkpt><trkpt lat="51.965485" lon="-1.940523"><ele>115.01</ele><time>2010-11-03T10:29:00Z</time></trkpt><trkpt lat="51.965500" lon="-1.940497"><ele>115.98</ele><time>2010-11-03T10:29:14Z</time></trkpt><trkpt lat="51.965541" lon="-1.940482"><ele>112.61</ele><time>2010-11-03T10:29:29Z</time></trkpt><trkpt lat="51.965556" lon="-1.940254"><ele>112.61</ele><time>2010-11-03T10:29:52Z</time></trkpt><trkpt lat="51.965582" lon="-1.940199"><ele>113.09</ele><time>2010-11-03T10:29:57Z</time></trkpt><trkpt lat="51.965678" lon="-1.940187"><ele>112.13</ele><time>2010-11-03T10:30:12Z</time></trkpt><trkpt lat="51.965695" lon="-1.940188"><ele>112.61</ele><time>2010-11-03T10:30:25Z</time></trkpt><trkpt lat="51.965699" lon="-1.940126"><ele>112.13</ele><time>2010-11-03T10:30:37Z</time></trkpt><trkpt lat="51.965732" lon="-1.940055"><ele>112.61</ele><time>2010-11-03T10:30:48Z</time></trkpt><trkpt lat="51.965852" lon="-1.939858"><ele>112.61</ele><time>2010-11-03T10:31:04Z</time></trkpt><trkpt lat="51.965988" lon="-1.939550"><ele>111.65</ele><time>2010-11-03T10:31:24Z</time></trkpt><trkpt lat="51.966013" lon="-1.939496"><ele>111.65</ele><time>2010-11-03T10:31:28Z</time></trkpt><trkpt lat="51.966083" lon="-1.939362"><ele>112.61</ele><time>2010-11-03T10:31:39Z</time></trkpt><trkpt lat="51.966189" lon="-1.939115"><ele>111.17</ele><time>2010-11-03T10:31:57Z</time></trkpt><trkpt lat="51.966312" lon="-1.938854"><ele>112.13</ele><time>2010-11-03T10:32:16Z</time></trkpt><trkpt lat="51.966414" lon="-1.938638"><ele>112.61</ele><time>2010-11-03T10:32:32Z</time></trkpt><trkpt lat="51.966528" lon="-1.938372"><ele>112.61</ele><time>2010-11-03T10:32:50Z</time></trkpt><trkpt lat="51.966629" lon="-1.938109"><ele>113.57</ele><time>2010-11-03T10:33:08Z</time></trkpt><trkpt lat="51.966762" lon="-1.937874"><ele>113.09</ele><time>2010-11-03T10:33:26Z</time></trkpt><trkpt lat="51.966863" lon="-1.937634"><ele>112.61</ele><time>2010-11-03T10:33:43Z</time></trkpt><trkpt lat="51.966893" lon="-1.937399"><ele>114.05</ele><time>2010-11-03T10:33:58Z</time></trkpt><trkpt lat="51.966853" lon="-1.937104"><ele>115.01</ele><time>2010-11-03T10:34:16Z</time></trkpt><trkpt lat="51.966803" lon="-1.936847"><ele>115.01</ele><time>2010-11-03T10:34:32Z</time></trkpt><trkpt lat="51.966800" lon="-1.936817"><ele>115.01</ele><time>2010-11-03T10:34:34Z</time></trkpt><trkpt lat="51.966782" lon="-1.936724"><ele>115.50</ele><time>2010-11-03T10:34:40Z</time></trkpt><trkpt lat="51.966742" lon="-1.936426"><ele>115.01</ele><time>2010-11-03T10:34:58Z</time></trkpt><trkpt lat="51.966740" lon="-1.936411"><ele>115.01</ele><time>2010-11-03T10:34:59Z</time></trkpt><trkpt lat="51.966735" lon="-1.936349"><ele>114.05</ele><time>2010-11-03T10:35:03Z</time></trkpt><trkpt lat="51.966706" lon="-1.936053"><ele>114.05</ele><time>2010-11-03T10:35:21Z</time></trkpt><trkpt lat="51.966717" lon="-1.935951"><ele>113.57</ele><time>2010-11-03T10:35:27Z</time></trkpt><trkpt lat="51.966828" lon="-1.935879"><ele>112.61</ele><time>2010-11-03T10:35:43Z</time></trkpt><trkpt lat="51.966833" lon="-1.935882"><ele>111.17</ele><time>2010-11-03T10:36:00Z</time></trkpt><trkpt lat="51.966999" lon="-1.935758"><ele>109.73</ele><time>2010-11-03T10:36:18Z</time></trkpt><trkpt lat="51.967207" lon="-1.935585"><ele>109.25</ele><time>2010-11-03T10:36:37Z</time></trkpt><trkpt lat="51.967393" lon="-1.935414"><ele>109.25</ele><time>2010-11-03T10:36:55Z</time></trkpt><trkpt lat="51.967532" lon="-1.935286"><ele>110.21</ele><time>2010-11-03T10:37:09Z</time></trkpt><trkpt lat="51.967719" lon="-1.935096"><ele>108.77</ele><time>2010-11-03T10:37:29Z</time></trkpt><trkpt lat="51.967872" lon="-1.934932"><ele>107.32</ele><time>2010-11-03T10:37:46Z</time></trkpt><trkpt lat="51.968089" lon="-1.934719"><ele>106.36</ele><time>2010-11-03T10:38:06Z</time></trkpt><trkpt lat="51.968282" lon="-1.934508"><ele>104.92</ele><time>2010-11-03T10:38:25Z</time></trkpt><trkpt lat="51.968479" lon="-1.934306"><ele>104.44</ele><time>2010-11-03T10:38:44Z</time></trkpt><trkpt lat="51.968660" lon="-1.934125"><ele>103.96</ele><time>2010-11-03T10:39:02Z</time></trkpt><trkpt lat="51.968731" lon="-1.934015"><ele>103.96</ele><time>2010-11-03T10:39:10Z</time></trkpt><trkpt lat="51.968841" lon="-1.933801"><ele>104.92</ele><time>2010-11-03T10:39:26Z</time></trkpt><trkpt lat="51.968899" lon="-1.933720"><ele>105.40</ele><time>2010-11-03T10:39:38Z</time></trkpt><trkpt lat="51.968841" lon="-1.933710"><ele>107.32</ele><time>2010-11-03T10:39:55Z</time></trkpt><trkpt lat="51.968823" lon="-1.933725"><ele>108.29</ele><time>2010-11-03T10:40:04Z</time></trkpt><trkpt lat="51.968863" lon="-1.933718"><ele>108.29</ele><time>2010-11-03T10:40:09Z</time></trkpt><trkpt lat="51.968999" lon="-1.933565"><ele>106.84</ele><time>2010-11-03T10:40:23Z</time></trkpt><trkpt lat="51.968966" lon="-1.933554"><ele>108.29</ele><time>2010-11-03T10:40:42Z</time></trkpt><trkpt lat="51.968968" lon="-1.933553"><ele>107.81</ele><time>2010-11-03T10:41:45Z</time></trkpt><trkpt lat="51.969072" lon="-1.933440"><ele>105.40</ele><time>2010-11-03T10:42:03Z</time></trkpt><trkpt lat="51.969278" lon="-1.933063"><ele>103.00</ele><time>2010-11-03T10:42:23Z</time></trkpt><trkpt lat="51.969430" lon="-1.932782"><ele>103.48</ele><time>2010-11-03T10:42:39Z</time></trkpt><trkpt lat="51.969447" lon="-1.932748"><ele>103.48</ele><time>2010-11-03T10:42:41Z</time></trkpt><trkpt lat="51.969460" lon="-1.932670"><ele>103.96</ele><time>2010-11-03T10:42:45Z</time></trkpt><trkpt lat="51.969431" lon="-1.932614"><ele>104.44</ele><time>2010-11-03T10:42:48Z</time></trkpt><trkpt lat="51.969349" lon="-1.932575"><ele>105.40</ele><time>2010-11-03T10:42:53Z</time></trkpt><trkpt lat="51.969129" lon="-1.932478"><ele>108.29</ele><time>2010-11-03T10:43:08Z</time></trkpt><trkpt lat="51.968875" lon="-1.932395"><ele>107.32</ele><time>2010-11-03T10:43:25Z</time></trkpt><trkpt lat="51.968651" lon="-1.932295"><ele>104.92</ele><time>2010-11-03T10:43:40Z</time></trkpt><trkpt lat="51.968453" lon="-1.932121"><ele>105.88</ele><time>2010-11-03T10:43:56Z</time></trkpt><trkpt lat="51.968467" lon="-1.931998"><ele>105.40</ele><time>2010-11-03T10:44:02Z</time></trkpt><trkpt lat="51.968630" lon="-1.931692"><ele>107.32</ele><time>2010-11-03T10:44:21Z</time></trkpt><trkpt lat="51.968729" lon="-1.931384"><ele>110.69</ele><time>2010-11-03T10:44:36Z</time></trkpt><trkpt lat="51.968776" lon="-1.931112"><ele>112.13</ele><time>2010-11-03T10:44:50Z</time></trkpt><trkpt lat="51.968759" lon="-1.931035"><ele>108.77</ele><time>2010-11-03T10:45:02Z</time></trkpt><trkpt lat="51.968863" lon="-1.930587"><ele>106.36</ele><time>2010-11-03T10:45:21Z</time></trkpt><trkpt lat="51.968953" lon="-1.930032"><ele>105.88</ele><time>2010-11-03T10:45:45Z</time></trkpt><trkpt lat="51.969019" lon="-1.929682"><ele>105.40</ele><time>2010-11-03T10:46:05Z</time></trkpt><trkpt lat="51.969060" lon="-1.929401"><ele>105.40</ele><time>2010-11-03T10:46:22Z</time></trkpt><trkpt lat="51.969124" lon="-1.929154"><ele>103.00</ele><time>2010-11-03T10:46:37Z</time></trkpt><trkpt lat="51.969176" lon="-1.928996"><ele>102.04</ele><time>2010-11-03T10:46:48Z</time></trkpt><trkpt lat="51.969248" lon="-1.928756"><ele>101.56</ele><time>2010-11-03T10:47:03Z</time></trkpt><trkpt lat="51.969353" lon="-1.928471"><ele>103.96</ele><time>2010-11-03T10:47:22Z</time></trkpt><trkpt lat="51.969407" lon="-1.928241"><ele>104.44</ele><time>2010-11-03T10:47:36Z</time></trkpt><trkpt lat="51.969462" lon="-1.928055"><ele>101.08</ele><time>2010-11-03T10:47:51Z</time></trkpt><trkpt lat="51.969450" lon="-1.928070"><ele>102.52</ele><time>2010-11-03T10:48:31Z</time></trkpt><trkpt lat="51.969531" lon="-1.928026"><ele>102.52</ele><time>2010-11-03T10:49:02Z</time></trkpt><trkpt lat="51.969652" lon="-1.927972"><ele>102.04</ele><time>2010-11-03T10:49:21Z</time></trkpt><trkpt lat="51.969649" lon="-1.927965"><ele>102.04</ele><time>2010-11-03T10:50:16Z</time></trkpt><trkpt lat="51.969621" lon="-1.927948"><ele>103.96</ele><time>2010-11-03T10:50:48Z</time></trkpt><trkpt lat="51.969624" lon="-1.927942"><ele>104.44</ele><time>2010-11-03T10:51:22Z</time></trkpt><trkpt lat="51.969619" lon="-1.927928"><ele>103.00</ele><time>2010-11-03T10:51:54Z</time></trkpt><trkpt lat="51.969628" lon="-1.927897"><ele>103.48</ele><time>2010-11-03T10:52:27Z</time></trkpt><trkpt lat="51.969619" lon="-1.927829"><ele>107.32</ele><time>2010-11-03T10:59:59Z</time></trkpt><trkpt lat="51.969564" lon="-1.927807"><ele>110.21</ele><time>2010-11-03T11:00:48Z</time></trkpt><trkpt lat="51.969623" lon="-1.927618"><ele>121.74</ele><time>2010-11-03T11:06:57Z</time></trkpt><trkpt lat="51.969603" lon="-1.927748"><ele>111.65</ele><time>2010-11-03T11:07:30Z</time></trkpt><trkpt lat="51.969590" lon="-1.928013"><ele>108.77</ele><time>2010-11-03T11:07:45Z</time></trkpt><trkpt lat="51.969591" lon="-1.928152"><ele>108.29</ele><time>2010-11-03T11:07:50Z</time></trkpt><trkpt lat="51.969729" lon="-1.928564"><ele>104.44</ele><time>2010-11-03T11:08:08Z</time></trkpt><trkpt lat="51.969847" lon="-1.928812"><ele>101.56</ele><time>2010-11-03T11:08:24Z</time></trkpt><trkpt lat="51.969895" lon="-1.928938"><ele>103.00</ele><time>2010-11-03T11:08:36Z</time></trkpt><trkpt lat="51.969968" lon="-1.929106"><ele>105.40</ele><time>2010-11-03T11:08:50Z</time></trkpt><trkpt lat="51.970063" lon="-1.929239"><ele>108.77</ele><time>2010-11-03T11:09:05Z</time></trkpt><trkpt lat="51.970221" lon="-1.929387"><ele>107.81</ele><time>2010-11-03T11:09:22Z</time></trkpt><trkpt lat="51.970412" lon="-1.929478"><ele>104.44</ele><time>2010-11-03T11:09:38Z</time></trkpt><trkpt lat="51.970596" lon="-1.929497"><ele>101.08</ele><time>2010-11-03T11:09:53Z</time></trkpt><trkpt lat="51.970799" lon="-1.929609"><ele>100.60</ele><time>2010-11-03T11:10:11Z</time></trkpt><trkpt lat="51.970924" lon="-1.929816"><ele>101.08</ele><time>2010-11-03T11:10:27Z</time></trkpt><trkpt lat="51.971002" lon="-1.930012"><ele>100.60</ele><time>2010-11-03T11:10:41Z</time></trkpt><trkpt lat="51.971052" lon="-1.930186"><ele>99.15</ele><time>2010-11-03T11:10:57Z</time></trkpt><trkpt lat="51.971052" lon="-1.930199"><ele>99.15</ele><time>2010-11-03T11:10:58Z</time></trkpt><trkpt lat="51.971033" lon="-1.930276"><ele>99.15</ele><time>2010-11-03T11:11:03Z</time></trkpt><trkpt lat="51.970992" lon="-1.930397"><ele>99.15</ele><time>2010-11-03T11:11:11Z</time></trkpt><trkpt lat="51.970912" lon="-1.930477"><ele>98.67</ele><time>2010-11-03T11:11:24Z</time></trkpt><trkpt lat="51.970803" lon="-1.930629"><ele>99.63</ele><time>2010-11-03T11:11:39Z</time></trkpt><trkpt lat="51.970666" lon="-1.930821"><ele>97.23</ele><time>2010-11-03T11:11:56Z</time></trkpt><trkpt lat="51.970657" lon="-1.930832"><ele>96.75</ele><time>2010-11-03T11:11:57Z</time></trkpt><trkpt lat="51.970505" lon="-1.930990"><ele>94.35</ele><time>2010-11-03T11:12:14Z</time></trkpt><trkpt lat="51.970408" lon="-1.931097"><ele>95.31</ele><time>2010-11-03T11:12:26Z</time></trkpt><trkpt lat="51.970342" lon="-1.931183"><ele>95.79</ele><time>2010-11-03T11:12:33Z</time></trkpt><trkpt lat="51.970233" lon="-1.931365"><ele>100.11</ele><time>2010-11-03T11:12:50Z</time></trkpt><trkpt lat="51.970128" lon="-1.931515"><ele>99.63</ele><time>2010-11-03T11:13:04Z</time></trkpt><trkpt lat="51.970046" lon="-1.931672"><ele>101.56</ele><time>2010-11-03T11:13:16Z</time></trkpt><trkpt lat="51.969917" lon="-1.931856"><ele>104.44</ele><time>2010-11-03T11:13:33Z</time></trkpt><trkpt lat="51.969848" lon="-1.931980"><ele>104.44</ele><time>2010-11-03T11:13:43Z</time></trkpt><trkpt lat="51.969795" lon="-1.932077"><ele>104.92</ele><time>2010-11-03T11:13:50Z</time></trkpt><trkpt lat="51.969701" lon="-1.932299"><ele>105.88</ele><time>2010-11-03T11:14:05Z</time></trkpt><trkpt lat="51.969554" lon="-1.932474"><ele>105.88</ele><time>2010-11-03T11:14:20Z</time></trkpt><trkpt lat="51.969450" lon="-1.932624"><ele>105.88</ele><time>2010-11-03T11:14:35Z</time></trkpt><trkpt lat="51.969334" lon="-1.932840"><ele>108.77</ele><time>2010-11-03T11:14:52Z</time></trkpt><trkpt lat="51.969256" lon="-1.932960"><ele>108.77</ele><time>2010-11-03T11:15:03Z</time></trkpt><trkpt lat="51.969100" lon="-1.933200"><ele>103.00</ele><time>2010-11-03T11:15:21Z</time></trkpt><trkpt lat="51.968974" lon="-1.933435"><ele>104.92</ele><time>2010-11-03T11:15:38Z</time></trkpt><trkpt lat="51.968862" lon="-1.933688"><ele>106.84</ele><time>2010-11-03T11:15:57Z</time></trkpt><trkpt lat="51.968837" lon="-1.933777"><ele>105.40</ele><time>2010-11-03T11:16:08Z</time></trkpt><trkpt lat="51.968840" lon="-1.933794"><ele>104.92</ele><time>2010-11-03T11:16:29Z</time></trkpt><trkpt lat="51.968851" lon="-1.933815"><ele>103.48</ele><time>2010-11-03T11:17:04Z</time></trkpt><trkpt lat="51.968893" lon="-1.933863"><ele>102.04</ele><time>2010-11-03T11:17:30Z</time></trkpt><trkpt lat="51.968901" lon="-1.933916"><ele>101.56</ele><time>2010-11-03T11:17:36Z</time></trkpt><trkpt lat="51.968907" lon="-1.933989"><ele>101.08</ele><time>2010-11-03T11:17:41Z</time></trkpt><trkpt lat="51.969055" lon="-1.934102"><ele>100.60</ele><time>2010-11-03T11:17:57Z</time></trkpt><trkpt lat="51.969204" lon="-1.934262"><ele>100.11</ele><time>2010-11-03T11:18:15Z</time></trkpt><trkpt lat="51.969248" lon="-1.934299"><ele>100.11</ele><time>2010-11-03T11:18:24Z</time></trkpt><trkpt lat="51.969385" lon="-1.934499"><ele>102.04</ele><time>2010-11-03T11:18:40Z</time></trkpt><trkpt lat="51.969511" lon="-1.934690"><ele>102.04</ele><time>2010-11-03T11:18:56Z</time></trkpt><trkpt lat="51.969630" lon="-1.934859"><ele>101.56</ele><time>2010-11-03T11:19:10Z</time></trkpt><trkpt lat="51.969768" lon="-1.935060"><ele>100.60</ele><time>2010-11-03T11:19:26Z</time></trkpt><trkpt lat="51.969887" lon="-1.935247"><ele>100.60</ele><time>2010-11-03T11:19:42Z</time></trkpt><trkpt lat="51.969978" lon="-1.935531"><ele>98.67</ele><time>2010-11-03T11:19:59Z</time></trkpt><trkpt lat="51.970096" lon="-1.935836"><ele>97.71</ele><time>2010-11-03T11:20:19Z</time></trkpt><trkpt lat="51.970199" lon="-1.936070"><ele>95.79</ele><time>2010-11-03T11:20:35Z</time></trkpt><trkpt lat="51.970287" lon="-1.936307"><ele>94.83</ele><time>2010-11-03T11:20:51Z</time></trkpt><trkpt lat="51.970373" lon="-1.936531"><ele>94.83</ele><time>2010-11-03T11:21:06Z</time></trkpt><trkpt lat="51.970487" lon="-1.936796"><ele>95.31</ele><time>2010-11-03T11:21:23Z</time></trkpt><trkpt lat="51.970596" lon="-1.937013"><ele>94.35</ele><time>2010-11-03T11:21:40Z</time></trkpt><trkpt lat="51.970695" lon="-1.937284"><ele>94.35</ele><time>2010-11-03T11:21:58Z</time></trkpt><trkpt lat="51.970700" lon="-1.937298"><ele>94.35</ele><time>2010-11-03T11:21:59Z</time></trkpt><trkpt lat="51.970791" lon="-1.937535"><ele>92.42</ele><time>2010-11-03T11:22:15Z</time></trkpt><trkpt lat="51.970864" lon="-1.937763"><ele>91.94</ele><time>2010-11-03T11:22:30Z</time></trkpt><trkpt lat="51.970904" lon="-1.937989"><ele>92.42</ele><time>2010-11-03T11:22:44Z</time></trkpt><trkpt lat="51.970954" lon="-1.938245"><ele>92.42</ele><time>2010-11-03T11:22:59Z</time></trkpt><trkpt lat="51.971016" lon="-1.938547"><ele>92.42</ele><time>2010-11-03T11:23:16Z</time></trkpt><trkpt lat="51.971087" lon="-1.938799"><ele>91.94</ele><time>2010-11-03T11:23:32Z</time></trkpt><trkpt lat="51.971168" lon="-1.939031"><ele>91.94</ele><time>2010-11-03T11:23:47Z</time></trkpt><trkpt lat="51.971233" lon="-1.939237"><ele>90.50</ele><time>2010-11-03T11:24:02Z</time></trkpt><trkpt lat="51.971253" lon="-1.939420"><ele>90.50</ele><time>2010-11-03T11:24:16Z</time></trkpt><trkpt lat="51.971249" lon="-1.939413"><ele>89.54</ele><time>2010-11-03T11:24:38Z</time></trkpt><trkpt lat="51.971261" lon="-1.939438"><ele>88.10</ele><time>2010-11-03T11:24:56Z</time></trkpt><trkpt lat="51.971258" lon="-1.939402"><ele>87.62</ele><time>2010-11-03T11:25:39Z</time></trkpt><trkpt lat="51.971241" lon="-1.939450"><ele>86.66</ele><time>2010-11-03T11:25:45Z</time></trkpt><trkpt lat="51.971126" lon="-1.939605"><ele>86.18</ele><time>2010-11-03T11:26:00Z</time></trkpt><trkpt lat="51.971071" lon="-1.939802"><ele>85.21</ele><time>2010-11-03T11:26:10Z</time></trkpt><trkpt lat="51.971067" lon="-1.939906"><ele>83.77</ele><time>2010-11-03T11:26:15Z</time></trkpt><trkpt lat="51.971138" lon="-1.940121"><ele>83.77</ele><time>2010-11-03T11:26:29Z</time></trkpt><trkpt lat="51.971188" lon="-1.940164"><ele>83.29</ele><time>2010-11-03T11:26:34Z</time></trkpt><trkpt lat="51.971237" lon="-1.940232"><ele>81.85</ele><time>2010-11-03T11:26:40Z</time></trkpt><trkpt lat="51.971299" lon="-1.940283"><ele>83.29</ele><time>2010-11-03T11:26:47Z</time></trkpt><trkpt lat="51.971350" lon="-1.940382"><ele>85.21</ele><time>2010-11-03T11:27:05Z</time></trkpt><trkpt lat="51.971351" lon="-1.940380"><ele>85.69</ele><time>2010-11-03T11:27:26Z</time></trkpt><trkpt lat="51.971338" lon="-1.940386"><ele>85.69</ele><time>2010-11-03T11:27:32Z</time></trkpt><trkpt lat="51.971336" lon="-1.940420"><ele>85.21</ele><time>2010-11-03T11:27:36Z</time></trkpt><trkpt lat="51.971398" lon="-1.940617"><ele>86.18</ele><time>2010-11-03T11:27:46Z</time></trkpt><trkpt lat="51.971507" lon="-1.940904"><ele>85.69</ele><time>2010-11-03T11:28:02Z</time></trkpt><trkpt lat="51.971642" lon="-1.941214"><ele>85.21</ele><time>2010-11-03T11:28:22Z</time></trkpt><trkpt lat="51.971735" lon="-1.941471"><ele>86.18</ele><time>2010-11-03T11:28:38Z</time></trkpt><trkpt lat="51.971833" lon="-1.941803"><ele>85.21</ele><time>2010-11-03T11:28:58Z</time></trkpt><trkpt lat="51.971923" lon="-1.942125"><ele>85.21</ele><time>2010-11-03T11:29:17Z</time></trkpt><trkpt lat="51.972000" lon="-1.942428"><ele>84.73</ele><time>2010-11-03T11:29:35Z</time></trkpt><trkpt lat="51.972085" lon="-1.942761"><ele>84.25</ele><time>2010-11-03T11:29:54Z</time></trkpt><trkpt lat="51.972158" lon="-1.943050"><ele>83.77</ele><time>2010-11-03T11:30:11Z</time></trkpt><trkpt lat="51.972234" lon="-1.943383"><ele>83.29</ele><time>2010-11-03T11:30:30Z</time></trkpt><trkpt lat="51.972298" lon="-1.943732"><ele>82.33</ele><time>2010-11-03T11:30:49Z</time></trkpt><trkpt lat="51.972345" lon="-1.944044"><ele>82.81</ele><time>2010-11-03T11:31:07Z</time></trkpt><trkpt lat="51.972392" lon="-1.944229"><ele>81.85</ele><time>2010-11-03T11:31:21Z</time></trkpt><trkpt lat="51.972455" lon="-1.944530"><ele>82.33</ele><time>2010-11-03T11:31:39Z</time></trkpt><trkpt lat="51.972509" lon="-1.944716"><ele>82.33</ele><time>2010-11-03T11:31:53Z</time></trkpt><trkpt lat="51.972534" lon="-1.944747"><ele>81.37</ele><time>2010-11-03T11:32:08Z</time></trkpt><trkpt lat="51.972547" lon="-1.944789"><ele>79.93</ele><time>2010-11-03T11:32:34Z</time></trkpt><trkpt lat="51.972569" lon="-1.944817"><ele>80.41</ele><time>2010-11-03T11:33:09Z</time></trkpt><trkpt lat="51.972598" lon="-1.944786"><ele>79.45</ele><time>2010-11-03T11:33:37Z</time></trkpt><trkpt lat="51.972630" lon="-1.944774"><ele>78.00</ele><time>2010-11-03T11:33:59Z</time></trkpt><trkpt lat="51.972658" lon="-1.944895"><ele>78.48</ele><time>2010-11-03T11:34:11Z</time></trkpt><trkpt lat="51.972709" lon="-1.945112"><ele>78.97</ele><time>2010-11-03T11:34:26Z</time></trkpt><trkpt lat="51.972738" lon="-1.945265"><ele>79.45</ele><time>2010-11-03T11:34:40Z</time></trkpt><trkpt lat="51.972801" lon="-1.945530"><ele>78.48</ele><time>2010-11-03T11:34:58Z</time></trkpt><trkpt lat="51.972839" lon="-1.945687"><ele>78.48</ele><time>2010-11-03T11:35:11Z</time></trkpt><trkpt lat="51.972892" lon="-1.945863"><ele>77.04</ele><time>2010-11-03T11:35:23Z</time></trkpt><trkpt lat="51.972948" lon="-1.946052"><ele>77.04</ele><time>2010-11-03T11:35:37Z</time></trkpt><trkpt lat="51.973006" lon="-1.946268"><ele>78.97</ele><time>2010-11-03T11:35:53Z</time></trkpt><trkpt lat="51.973051" lon="-1.946483"><ele>78.97</ele><time>2010-11-03T11:36:08Z</time></trkpt><trkpt lat="51.973085" lon="-1.946557"><ele>78.97</ele><time>2010-11-03T11:36:13Z</time></trkpt><trkpt lat="51.973130" lon="-1.946594"><ele>78.48</ele><time>2010-11-03T11:36:18Z</time></trkpt><trkpt lat="51.973245" lon="-1.946443"><ele>82.33</ele><time>2010-11-03T11:36:34Z</time></trkpt><trkpt lat="51.973277" lon="-1.946396"><ele>78.48</ele><time>2010-11-03T11:36:58Z</time></trkpt><trkpt lat="51.973297" lon="-1.946357"><ele>78.00</ele><time>2010-11-03T11:37:08Z</time></trkpt><trkpt lat="51.973375" lon="-1.946494"><ele>79.45</ele><time>2010-11-03T11:37:24Z</time></trkpt><trkpt lat="51.973440" lon="-1.946599"><ele>79.45</ele><time>2010-11-03T11:37:36Z</time></trkpt><trkpt lat="51.973450" lon="-1.946637"><ele>79.93</ele><time>2010-11-03T11:37:49Z</time></trkpt><trkpt lat="51.973482" lon="-1.946632"><ele>79.93</ele><time>2010-11-03T11:38:05Z</time></trkpt><trkpt lat="51.973487" lon="-1.946639"><ele>78.97</ele><time>2010-11-03T11:38:19Z</time></trkpt><trkpt lat="51.973581" lon="-1.946824"><ele>78.97</ele><time>2010-11-03T11:38:33Z</time></trkpt><trkpt lat="51.973714" lon="-1.947057"><ele>78.48</ele><time>2010-11-03T11:38:49Z</time></trkpt><trkpt lat="51.973828" lon="-1.947269"><ele>78.48</ele><time>2010-11-03T11:39:07Z</time></trkpt><trkpt lat="51.973901" lon="-1.947567"><ele>78.00</ele><time>2010-11-03T11:39:26Z</time></trkpt><trkpt lat="51.973950" lon="-1.947825"><ele>77.04</ele><time>2010-11-03T11:39:42Z</time></trkpt><trkpt lat="51.974026" lon="-1.948115"><ele>77.04</ele><time>2010-11-03T11:40:01Z</time></trkpt><trkpt lat="51.974090" lon="-1.948368"><ele>77.04</ele><time>2010-11-03T11:40:17Z</time></trkpt><trkpt lat="51.974155" lon="-1.948643"><ele>77.04</ele><time>2010-11-03T11:40:33Z</time></trkpt><trkpt lat="51.974168" lon="-1.948708"><ele>77.04</ele><time>2010-11-03T11:40:37Z</time></trkpt><trkpt lat="51.974249" lon="-1.948937"><ele>74.64</ele><time>2010-11-03T11:40:55Z</time></trkpt><trkpt lat="51.974242" lon="-1.949200"><ele>72.72</ele><time>2010-11-03T11:41:11Z</time></trkpt><trkpt lat="51.974229" lon="-1.949236"><ele>74.16</ele><time>2010-11-03T11:41:23Z</time></trkpt><trkpt lat="51.974239" lon="-1.949294"><ele>73.68</ele><time>2010-11-03T11:41:36Z</time></trkpt><trkpt lat="51.974203" lon="-1.949300"><ele>72.72</ele><time>2010-11-03T11:41:47Z</time></trkpt><trkpt lat="51.974176" lon="-1.949324"><ele>72.24</ele><time>2010-11-03T11:41:56Z</time></trkpt><trkpt lat="51.974151" lon="-1.949578"><ele>72.24</ele><time>2010-11-03T11:42:11Z</time></trkpt><trkpt lat="51.974152" lon="-1.949853"><ele>72.24</ele><time>2010-11-03T11:42:26Z</time></trkpt><trkpt lat="51.974136" lon="-1.950127"><ele>72.24</ele><time>2010-11-03T11:42:42Z</time></trkpt><trkpt lat="51.974091" lon="-1.950473"><ele>72.72</ele><time>2010-11-03T11:43:02Z</time></trkpt><trkpt lat="51.974031" lon="-1.950747"><ele>72.72</ele><time>2010-11-03T11:43:18Z</time></trkpt><trkpt lat="51.973961" lon="-1.951007"><ele>72.72</ele><time>2010-11-03T11:43:35Z</time></trkpt><trkpt lat="51.973901" lon="-1.951252"><ele>71.76</ele><time>2010-11-03T11:43:51Z</time></trkpt><trkpt lat="51.973839" lon="-1.951519"><ele>71.76</ele><time>2010-11-03T11:44:08Z</time></trkpt><trkpt lat="51.973780" lon="-1.951749"><ele>72.72</ele><time>2010-11-03T11:44:24Z</time></trkpt><trkpt lat="51.973760" lon="-1.951821"><ele>72.72</ele><time>2010-11-03T11:44:29Z</time></trkpt><trkpt lat="51.973639" lon="-1.952026"><ele>72.72</ele><time>2010-11-03T11:44:45Z</time></trkpt><trkpt lat="51.973471" lon="-1.952198"><ele>71.76</ele><time>2010-11-03T11:45:04Z</time></trkpt><trkpt lat="51.973315" lon="-1.952262"><ele>71.27</ele><time>2010-11-03T11:45:21Z</time></trkpt><trkpt lat="51.973144" lon="-1.952303"><ele>71.27</ele><time>2010-11-03T11:45:38Z</time></trkpt><trkpt lat="51.973056" lon="-1.952393"><ele>70.79</ele><time>2010-11-03T11:45:50Z</time></trkpt><trkpt lat="51.973014" lon="-1.952444"><ele>70.79</ele><time>2010-11-03T11:45:56Z</time></trkpt><trkpt lat="51.972984" lon="-1.952536"><ele>71.76</ele><time>2010-11-03T11:46:01Z</time></trkpt><trkpt lat="51.972995" lon="-1.952579"><ele>71.76</ele><time>2010-11-03T11:46:07Z</time></trkpt><trkpt lat="51.973167" lon="-1.952356"><ele>71.76</ele><time>2010-11-03T11:46:23Z</time></trkpt><trkpt lat="51.973350" lon="-1.952308"><ele>69.35</ele><time>2010-11-03T11:46:39Z</time></trkpt><trkpt lat="51.973505" lon="-1.952243"><ele>69.83</ele><time>2010-11-03T11:46:57Z</time></trkpt><trkpt lat="51.973645" lon="-1.952209"><ele>69.35</ele><time>2010-11-03T11:47:11Z</time></trkpt><trkpt lat="51.973821" lon="-1.952058"><ele>71.27</ele><time>2010-11-03T11:47:29Z</time></trkpt><trkpt lat="51.974002" lon="-1.951964"><ele>71.27</ele><time>2010-11-03T11:47:49Z</time></trkpt><trkpt lat="51.974127" lon="-1.951925"><ele>71.27</ele><time>2010-11-03T11:48:05Z</time></trkpt><trkpt lat="51.974144" lon="-1.951922"><ele>70.79</ele><time>2010-11-03T11:48:18Z</time></trkpt><trkpt lat="51.974148" lon="-1.951945"><ele>71.27</ele><time>2010-11-03T11:48:33Z</time></trkpt><trkpt lat="51.974131" lon="-1.951985"><ele>71.76</ele><time>2010-11-03T11:48:51Z</time></trkpt><trkpt lat="51.974141" lon="-1.952088"><ele>72.24</ele><time>2010-11-03T11:49:04Z</time></trkpt><trkpt lat="51.974157" lon="-1.952146"><ele>71.27</ele><time>2010-11-03T11:49:11Z</time></trkpt><trkpt lat="51.974093" lon="-1.952467"><ele>73.68</ele><time>2010-11-03T11:49:27Z</time></trkpt><trkpt lat="51.974089" lon="-1.952830"><ele>72.72</ele><time>2010-11-03T11:49:46Z</time></trkpt><trkpt lat="51.974099" lon="-1.953042"><ele>72.72</ele><time>2010-11-03T11:50:03Z</time></trkpt><trkpt lat="51.974101" lon="-1.953045"><ele>72.72</ele><time>2010-11-03T11:50:25Z</time></trkpt><trkpt lat="51.974125" lon="-1.953087"><ele>72.72</ele><time>2010-11-03T11:50:55Z</time></trkpt><trkpt lat="51.974118" lon="-1.953070"><ele>72.72</ele><time>2010-11-03T11:51:25Z</time></trkpt><trkpt lat="51.974106" lon="-1.953163"><ele>71.27</ele><time>2010-11-03T11:51:36Z</time></trkpt><trkpt lat="51.974002" lon="-1.953456"><ele>74.16</ele><time>2010-11-03T11:51:55Z</time></trkpt><trkpt lat="51.973903" lon="-1.953645"><ele>75.60</ele><time>2010-11-03T11:52:10Z</time></trkpt><trkpt lat="51.973811" lon="-1.953868"><ele>76.08</ele><time>2010-11-03T11:52:27Z</time></trkpt><trkpt lat="51.973739" lon="-1.954116"><ele>76.56</ele><time>2010-11-03T11:52:44Z</time></trkpt><trkpt lat="51.973668" lon="-1.954393"><ele>77.52</ele><time>2010-11-03T11:53:03Z</time></trkpt><trkpt lat="51.973606" lon="-1.954637"><ele>78.97</ele><time>2010-11-03T11:53:20Z</time></trkpt><trkpt lat="51.973524" lon="-1.954905"><ele>80.41</ele><time>2010-11-03T11:53:39Z</time></trkpt><trkpt lat="51.973468" lon="-1.955175"><ele>80.41</ele><time>2010-11-03T11:53:56Z</time></trkpt><trkpt lat="51.973447" lon="-1.955322"><ele>80.41</ele><time>2010-11-03T11:54:14Z</time></trkpt><trkpt lat="51.973404" lon="-1.955468"><ele>79.93</ele><time>2010-11-03T11:54:35Z</time></trkpt><trkpt lat="51.973323" lon="-1.955708"><ele>81.37</ele><time>2010-11-03T11:54:52Z</time></trkpt><trkpt lat="51.973234" lon="-1.955937"><ele>80.89</ele><time>2010-11-03T11:55:11Z</time></trkpt><trkpt lat="51.973225" lon="-1.955958"><ele>81.37</ele><time>2010-11-03T11:55:34Z</time></trkpt><trkpt lat="51.973208" lon="-1.955956"><ele>80.41</ele><time>2010-11-03T11:55:50Z</time></trkpt><trkpt lat="51.973076" lon="-1.956148"><ele>80.41</ele><time>2010-11-03T11:56:05Z</time></trkpt><trkpt lat="51.972922" lon="-1.956376"><ele>81.85</ele><time>2010-11-03T11:56:24Z</time></trkpt><trkpt lat="51.972845" lon="-1.956532"><ele>82.33</ele><time>2010-11-03T11:56:40Z</time></trkpt><trkpt lat="51.972799" lon="-1.956575"><ele>80.89</ele><time>2010-11-03T11:56:53Z</time></trkpt><trkpt lat="51.972642" lon="-1.956810"><ele>81.37</ele><time>2010-11-03T11:57:11Z</time></trkpt><trkpt lat="51.972556" lon="-1.956938"><ele>81.37</ele><time>2010-11-03T11:57:26Z</time></trkpt><trkpt lat="51.972539" lon="-1.956974"><ele>82.33</ele><time>2010-11-03T11:57:44Z</time></trkpt><trkpt lat="51.972530" lon="-1.956984"><ele>81.85</ele><time>2010-11-03T11:58:09Z</time></trkpt><trkpt lat="51.972480" lon="-1.957026"><ele>82.81</ele><time>2010-11-03T11:58:31Z</time></trkpt><trkpt lat="51.972473" lon="-1.957030"><ele>83.29</ele><time>2010-11-03T11:58:32Z</time></trkpt><trkpt lat="51.972419" lon="-1.957044"><ele>82.81</ele><time>2010-11-03T11:58:37Z</time></trkpt><trkpt lat="51.972301" lon="-1.957072"><ele>81.85</ele><time>2010-11-03T11:58:46Z</time></trkpt><trkpt lat="51.972298" lon="-1.957370"><ele>81.85</ele><time>2010-11-03T11:59:01Z</time></trkpt><trkpt lat="51.972334" lon="-1.957699"><ele>81.37</ele><time>2010-11-03T11:59:18Z</time></trkpt><trkpt lat="51.972350" lon="-1.958018"><ele>81.37</ele><time>2010-11-03T11:59:35Z</time></trkpt><trkpt lat="51.972365" lon="-1.958326"><ele>80.89</ele><time>2010-11-03T11:59:52Z</time></trkpt><trkpt lat="51.972364" lon="-1.958628"><ele>80.41</ele><time>2010-11-03T12:00:09Z</time></trkpt><trkpt lat="51.972357" lon="-1.958929"><ele>79.93</ele><time>2010-11-03T12:00:26Z</time></trkpt><trkpt lat="51.972344" lon="-1.959237"><ele>81.37</ele><time>2010-11-03T12:00:44Z</time></trkpt><trkpt lat="51.972344" lon="-1.959284"><ele>81.37</ele><time>2010-11-03T12:00:47Z</time></trkpt><trkpt lat="51.972306" lon="-1.959580"><ele>81.37</ele><time>2010-11-03T12:01:04Z</time></trkpt><trkpt lat="51.972175" lon="-1.959852"><ele>81.85</ele><time>2010-11-03T12:01:23Z</time></trkpt><trkpt lat="51.972052" lon="-1.960088"><ele>81.37</ele><time>2010-11-03T12:01:42Z</time></trkpt><trkpt lat="51.972031" lon="-1.960168"><ele>81.37</ele><time>2010-11-03T12:01:57Z</time></trkpt><trkpt lat="51.971949" lon="-1.960451"><ele>81.85</ele><time>2010-11-03T12:02:16Z</time></trkpt><trkpt lat="51.971891" lon="-1.960814"><ele>81.85</ele><time>2010-11-03T12:02:35Z</time></trkpt><trkpt lat="51.971858" lon="-1.961092"><ele>82.33</ele><time>2010-11-03T12:02:51Z</time></trkpt><trkpt lat="51.971671" lon="-1.961326"><ele>83.77</ele><time>2010-11-03T12:03:11Z</time></trkpt><trkpt lat="51.971501" lon="-1.961568"><ele>84.73</ele><time>2010-11-03T12:03:31Z</time></trkpt><trkpt lat="51.971351" lon="-1.961810"><ele>85.69</ele><time>2010-11-03T12:03:50Z</time></trkpt><trkpt lat="51.971287" lon="-1.961957"><ele>85.69</ele><time>2010-11-03T12:04:00Z</time></trkpt><trkpt lat="51.971269" lon="-1.962287"><ele>85.69</ele><time>2010-11-03T12:04:18Z</time></trkpt><trkpt lat="51.971262" lon="-1.962573"><ele>86.18</ele><time>2010-11-03T12:04:34Z</time></trkpt><trkpt lat="51.971260" lon="-1.962714"><ele>85.21</ele><time>2010-11-03T12:04:49Z</time></trkpt><trkpt lat="51.971250" lon="-1.962820"><ele>84.73</ele><time>2010-11-03T12:05:08Z</time></trkpt><trkpt lat="51.971242" lon="-1.962938"><ele>86.18</ele><time>2010-11-03T12:05:21Z</time></trkpt><trkpt lat="51.971225" lon="-1.963114"><ele>88.58</ele><time>2010-11-03T12:05:35Z</time></trkpt><trkpt lat="51.971210" lon="-1.963236"><ele>89.54</ele><time>2010-11-03T12:05:42Z</time></trkpt><trkpt lat="51.971208" lon="-1.963264"><ele>89.54</ele><time>2010-11-03T12:05:44Z</time></trkpt><trkpt lat="51.971187" lon="-1.963398"><ele>90.02</ele><time>2010-11-03T12:05:52Z</time></trkpt><trkpt lat="51.971181" lon="-1.963487"><ele>90.02</ele><time>2010-11-03T12:05:57Z</time></trkpt><trkpt lat="51.971180" lon="-1.963527"><ele>90.50</ele><time>2010-11-03T12:05:59Z</time></trkpt><trkpt lat="51.971173" lon="-1.963581"><ele>90.50</ele><time>2010-11-03T12:06:02Z</time></trkpt><trkpt lat="51.971121" lon="-1.963696"><ele>91.46</ele><time>2010-11-03T12:06:10Z</time></trkpt><trkpt lat="51.970924" lon="-1.963640"><ele>93.87</ele><time>2010-11-03T12:06:26Z</time></trkpt><trkpt lat="51.970757" lon="-1.963543"><ele>95.79</ele><time>2010-11-03T12:06:41Z</time></trkpt><trkpt lat="51.970539" lon="-1.963457"><ele>96.27</ele><time>2010-11-03T12:06:59Z</time></trkpt><trkpt lat="51.970412" lon="-1.963434"><ele>96.27</ele><time>2010-11-03T12:07:14Z</time></trkpt><trkpt lat="51.970207" lon="-1.963450"><ele>96.27</ele><time>2010-11-03T12:07:32Z</time></trkpt><trkpt lat="51.970036" lon="-1.963499"><ele>97.23</ele><time>2010-11-03T12:07:48Z</time></trkpt><trkpt lat="51.969839" lon="-1.963560"><ele>95.79</ele><time>2010-11-03T12:08:06Z</time></trkpt><trkpt lat="51.969665" lon="-1.963640"><ele>95.79</ele><time>2010-11-03T12:08:22Z</time></trkpt><trkpt lat="51.969490" lon="-1.963770"><ele>94.35</ele><time>2010-11-03T12:08:40Z</time></trkpt><trkpt lat="51.969290" lon="-1.963879"><ele>95.31</ele><time>2010-11-03T12:08:59Z</time></trkpt><trkpt lat="51.969204" lon="-1.963901"><ele>98.19</ele><time>2010-11-03T12:09:17Z</time></trkpt><trkpt lat="51.969100" lon="-1.963958"><ele>96.75</ele><time>2010-11-03T12:09:30Z</time></trkpt><trkpt lat="51.969000" lon="-1.963981"><ele>96.75</ele><time>2010-11-03T12:09:45Z</time></trkpt><trkpt lat="51.968982" lon="-1.963983"><ele>96.27</ele><time>2010-11-03T12:09:47Z</time></trkpt><trkpt lat="51.968909" lon="-1.964030"><ele>96.75</ele><time>2010-11-03T12:09:54Z</time></trkpt><trkpt lat="51.968755" lon="-1.964084"><ele>96.75</ele><time>2010-11-03T12:10:10Z</time></trkpt><trkpt lat="51.968567" lon="-1.964202"><ele>97.23</ele><time>2010-11-03T12:10:27Z</time></trkpt><trkpt lat="51.968520" lon="-1.964279"><ele>97.23</ele><time>2010-11-03T12:10:38Z</time></trkpt><trkpt lat="51.968422" lon="-1.964384"><ele>96.75</ele><time>2010-11-03T12:10:51Z</time></trkpt><trkpt lat="51.968176" lon="-1.964480"><ele>99.63</ele><time>2010-11-03T12:11:11Z</time></trkpt><trkpt lat="51.968011" lon="-1.964518"><ele>98.67</ele><time>2010-11-03T12:11:27Z</time></trkpt><trkpt lat="51.967874" lon="-1.964631"><ele>98.67</ele><time>2010-11-03T12:11:43Z</time></trkpt><trkpt lat="51.967798" lon="-1.964661"><ele>97.71</ele><time>2010-11-03T12:11:51Z</time></trkpt><trkpt lat="51.967777" lon="-1.964768"><ele>97.71</ele><time>2010-11-03T12:11:58Z</time></trkpt><trkpt lat="51.967801" lon="-1.964989"><ele>97.71</ele><time>2010-11-03T12:12:09Z</time></trkpt><trkpt lat="51.967856" lon="-1.965326"><ele>96.27</ele><time>2010-11-03T12:12:27Z</time></trkpt><trkpt lat="51.967860" lon="-1.965410"><ele>96.27</ele><time>2010-11-03T12:12:41Z</time></trkpt><trkpt lat="51.967853" lon="-1.965422"><ele>95.79</ele><time>2010-11-03T12:12:47Z</time></trkpt></trkseg></trk></gpx>